»·PEaware :: SKW5420 KBUR-KIFP

SKW5420 :: KBUR-KIFP

FLIGHT INFORMATION

Flight Status: Arrived
Operator:
SkyWest Airlines
More flights by this operator :: More flights under this callsign
Pilot: Kevin M. (7)
Aircraft: CANADAIR CL-600 CRJ-200
(CRJ2)
More flights by this aircraft type
Origin: KBUR Bob Hope-Burbank
United States
Destination: KIFP Laughlin/Bullhead Intl
United States
More flights between these airports :: More routes between these airports
Route: +VNY3 DAG EED
File this flight plan on PilotEdge
Remarks: Back at it
Altitude:
(Current/Filed)
27,000ft
Speed:
(Current/Filed)
430kts
Departed: 02-Jan-17 06:12 PM
Arrived: 02-Jan-17 06:52 PM
Distance/Time
Traveled:
196nm/0:40
Distance/Time
To Go:
Arrived

Flight Plot

Page will automatically refresh every two minutes.

Flight plan parsing failed; only flown route is shown


Map Options




Map Legend


Flown Route
Filed Route
Departure Airport
Arrival Airport
Navaid (VOR, NDB)
Fix

Horizontal Profiles

Position Reports

Time Latitude Longitude Heading Altitude Ground
Speed
02-Jan-17 17:53 34.196769 -118.351454 180 782ft 0kts
02-Jan-17 17:54 34.196769 -118.351454 180 782ft 0kts
02-Jan-17 17:55 34.196769 -118.351454 180 782ft 0kts
02-Jan-17 17:56 34.196769 -118.351454 180 782ft 0kts
02-Jan-17 17:57 34.196769 -118.351454 180 782ft 0kts
02-Jan-17 17:58 34.196769 -118.351454 180 782ft 0kts
02-Jan-17 17:59 34.196769 -118.351454 180 782ft 0kts
02-Jan-17 18:00 34.196769 -118.351454 180 782ft 0kts
02-Jan-17 18:01 34.196769 -118.351454 180 782ft 0kts
02-Jan-17 18:02 34.196769 -118.351454 180 782ft 0kts
02-Jan-17 18:03 34.196769 -118.351454 180 782ft 0kts
02-Jan-17 18:04 34.196769 -118.351454 180 782ft 0kts
02-Jan-17 18:05 34.196769 -118.351454 180 782ft 0kts
02-Jan-17 18:06 34.196770 -118.351454 180 782ft 0kts
02-Jan-17 18:07 34.197168 -118.351345 269 782ft 0kts
02-Jan-17 18:08 34.197224 -118.353983 276 782ft 14kts
02-Jan-17 18:09 34.201675 -118.356134 345 782ft 29kts
02-Jan-17 18:10 34.208792 -118.358124 346 782ft 27kts
02-Jan-17 18:11 34.212189 -118.360125 267 782ft 20kts
02-Jan-17 18:12 34.188701 -118.353722 173 1430ft 171kts
02-Jan-17 18:13 34.142635 -118.378665 215 3874ft 237kts
02-Jan-17 18:14 34.134314 -118.442323 314 6716ft 282kts
02-Jan-17 18:15 34.196235 -118.457272 357 9508ft 300kts
02-Jan-17 18:16 34.268818 -118.457977 355 12103ft 312kts
02-Jan-17 18:17 34.350349 -118.459765 355 14476ft 326kts
02-Jan-17 18:18 34.419500 -118.400807 50 16282ft 357kts
02-Jan-17 18:19 34.478032 -118.309093 52 17832ft 378kts
02-Jan-17 18:20 34.537860 -118.213584 52 19331ft 391kts
02-Jan-17 18:21 34.593743 -118.124119 52 20688ft 397kts
02-Jan-17 18:22 34.634799 -118.022100 81 22081ft 396kts
02-Jan-17 18:23 34.649307 -117.898846 83 23572ft 395kts
02-Jan-17 18:24 34.662629 -117.779155 83 25013ft 392kts
02-Jan-17 18:25 34.691267 -117.658458 73 26524ft 400kts
02-Jan-17 18:26 34.722844 -117.534854 73 27079ft 429kts
02-Jan-17 18:27 34.757366 -117.399210 73 26708ft 469kts
02-Jan-17 18:28 34.795568 -117.248316 73 26347ft 482kts
02-Jan-17 18:29 34.833692 -117.096842 73 26462ft 481kts
02-Jan-17 18:30 34.871768 -116.944665 73 26526ft 481kts
02-Jan-17 18:31 34.909697 -116.793982 76 26135ft 494kts
02-Jan-17 18:32 34.949475 -116.631256 71 25314ft 539kts
02-Jan-17 18:33 34.951626 -116.451142 98 24377ft 557kts
02-Jan-17 18:34 34.935986 -116.269477 98 23346ft 544kts
02-Jan-17 18:35 34.920292 -116.091000 97 22407ft 533kts
02-Jan-17 18:36 34.904607 -115.915468 97 21433ft 520kts
02-Jan-17 18:37 34.890375 -115.755051 98 20319ft 507kts
02-Jan-17 18:38 34.875062 -115.588753 97 19228ft 493kts
02-Jan-17 18:39 34.860579 -115.433846 97 17965ft 475kts
02-Jan-17 18:40 34.846401 -115.284195 97 16946ft 451kts
02-Jan-17 18:41 34.832765 -115.142410 97 15788ft 422kts
02-Jan-17 18:42 34.819881 -115.009903 96 14537ft 402kts
02-Jan-17 18:43 34.828765 -114.887926 51 13111ft 385kts
02-Jan-17 18:44 34.889974 -114.789793 51 11469ft 369kts
02-Jan-17 18:45 34.947955 -114.695389 51 9795ft 346kts
02-Jan-17 18:46 35.002959 -114.615232 43 8222ft 337kts
02-Jan-17 18:47 35.086321 -114.588494 354 5843ft 302kts
02-Jan-17 18:48 35.161441 -114.603101 343 3623ft 267kts
02-Jan-17 18:49 35.221124 -114.602316 45 3089ft 177kts
02-Jan-17 18:50 35.217225 -114.562530 176 2244ft 133kts
02-Jan-17 18:51 35.179679 -114.561206 175 1163ft 131kts
02-Jan-17 18:52 35.152073 -114.559154 177 707ft 28kts
02-Jan-17 18:53 35.156156 -114.558044 355 706ft 28kts
02-Jan-17 18:54 35.162923 -114.558044 82 706ft 13kts
02-Jan-17 18:55 35.164965 -114.556243 91 706ft 0kts

Navigation Log

Ident Type
Flight plan parsing failed, navigation log unavailable